Flight Track Log - Related Links

Times and Time Zones

All times are in EDT time to prevent confusion due to time zone crossing. See the AAY846 flight status page for this flight to view local times or setup timezone preferences in your user account.

Time Position Orientation Groundspeed Altitude Reporting Facility
EDT Latitude Longitude Course Direction KTS MPH feet Rate Location/Type
Fri 08:42:58 AM 27.9333 -82.7000 24° Northeast 171 197 1,000  Level Tampa TRACON
Fri 08:44:16 AM 28.0000 -82.6667 24° Northeast 276 318 3,200 1,429 Climbing Tampa TRACON
Fri 08:45:04 AM 28.0667 -82.6500 12° North 269 310 4,000 1,617 Climbing Tampa TRACON
Fri 08:46:11 AM 28.1167 -82.7167 310° West 274 315 6,300 2,315 Climbing Tampa TRACON
Fri 08:47:11 AM 28.1333 -82.8000 283° West 276 318 8,900 1,785 Climbing Tampa TRACON
Fri 08:49:26 AM 28.3294 -82.8361 351° North 305 351 12,100 954 Climbing Jacksonville Center
Fri 08:50:26 AM 28.4358 -82.8289 North 351 404 12,000 550 Descending Jacksonville Center
Fri 08:51:26 AM 28.5422 -82.7933 16° North 378 435 13,200 1,850 Climbing Jacksonville Center
Fri 08:52:26 AM 28.6508 -82.7625 14° North 390 449 15,700 2,400 Climbing Jacksonville Center
Fri 08:53:26 AM 28.7675 -82.7575 North 400 460 18,000 2,050 Climbing Jacksonville Center
Fri 08:54:26 AM 28.8803 -82.7622 358° North 405 466 19,800 1,800 Climbing Jacksonville Center
Fri 08:55:26 AM 28.9742 -82.8333 326° Northwest 390 449 21,600 1,650 Climbing Jacksonville Center
Fri 08:56:26 AM 29.0767 -82.9069 328° Northwest 407 468 23,100 1,950 Climbing Jacksonville Center
Fri 08:57:26 AM 29.1767 -82.9758 329° Northwest 418 481 25,500 1,450 Climbing Jacksonville Center
Fri 08:58:26 AM 29.2769 -83.0403 331° Northwest 423 487 26,000 550 Climbing Jacksonville Center
Fri 08:59:26 AM 29.3728 -83.1094 328° Northwest 418 481 26,600 950 Climbing Jacksonville Center
Fri 09:00:26 AM 29.4750 -83.1622 336° Northwest 405 466 27,900 650 Climbing Jacksonville Center
Fri 09:01:26 AM 29.5772 -83.2172 335° Northwest 405 466 27,900 150 Level Jacksonville Center
Fri 09:02:26 AM 29.6772 -83.2678 336° Northwest 400 460 28,200 1,100 Climbing Jacksonville Center
Fri 09:03:26 AM 29.7753 -83.3233 334° Northwest 400 460 30,100 1,800 Climbing Jacksonville Center
Fri 09:04:26 AM 29.8522 -83.3572 339° North 388 447 31,800 950 Climbing Jacksonville Center
Fri 09:05:26 AM 29.9522 -83.4103 335° Northwest 373 429 32,000 50 Climbing Jacksonville Center
Fri 09:06:26 AM 30.0461 -83.4589 336° Northwest 361 415 31,900  Descending Jacksonville Center
Fri 09:07:26 AM 30.1397 -83.5050 337° Northwest 361 415 32,000 450 Climbing Jacksonville Center
Fri 09:08:26 AM 30.2314 -83.5536 335° Northwest 361 415 32,800 950 Climbing Jacksonville Center
Fri 09:09:26 AM 30.3250 -83.5978 338° Northwest 361 415 33,900 550 Climbing Jacksonville Center
Fri 09:10:26 AM 30.4064 -83.6464 333° Northwest 341 392 33,900  Level Jacksonville Center
Fri 09:11:26 AM 30.4958 -83.6858 339° North 341 392 33,900 50 Level Jacksonville Center
Fri 09:12:26 AM 30.5914 -83.7372 335° Northwest 341 392 34,000 50 Climbing Jacksonville Center
Fri 09:13:26 AM 30.6831 -83.7839 336° Northwest 341 392 34,000  Level Jacksonville Center
Fri 09:14:26 AM 30.7725 -83.8331 335° Northwest 346 398 34,000  Level Jacksonville Center
Fri 09:15:26 AM 30.8619 -83.8728 339° North 346 398 34,000  Level Jacksonville Center
Fri 09:16:26 AM 30.9492 -83.9294 331° Northwest 340 391 34,000  Level Jacksonville Center
Fri 09:17:26 AM 31.0408 -83.9692 340° North 340 391 34,000  Level Jacksonville Center
Fri 09:18:26 AM 31.1300 -84.0186 335° Northwest 340 391 34,000  Level Jacksonville Center
Fri 09:19:58 AM 31.2583 -84.0850 336° Northwest 349 402 34,000  Level Atlanta Center
Fri 09:20:58 AM 31.3500 -84.1336 336° Northwest 354 407 34,000  Level Atlanta Center
Fri 09:21:58 AM 31.4378 -84.1800 336° Northwest 354 407 34,000  Level Atlanta Center
Fri 09:22:58 AM 31.5272 -84.2314 334° Northwest 354 407 34,000  Level Atlanta Center
Fri 09:23:58 AM 31.6169 -84.2753 337° Northwest 354 407 34,000  Level Atlanta Center
Fri 09:24:58 AM 31.7086 -84.3244 335° Northwest 354 407 34,000  Level Atlanta Center
Fri 09:25:58 AM 31.7983 -84.3711 336° Northwest 354 407 34,000  Level Atlanta Center
Fri 09:26:58 AM 31.8900 -84.4228 334° Northwest 354 407 34,000  Level Atlanta Center
Fri 09:27:58 AM 31.9817 -84.4675 338° Northwest 359 413 34,000  Level Atlanta Center
Fri 09:28:58 AM 32.0692 -84.5192 333° Northwest 353 406 34,000  Level Atlanta Center
Fri 09:29:58 AM 32.1608 -84.5639 338° Northwest 353 406 34,000  Level Atlanta Center
Fri 09:30:58 AM 32.2503 -84.6161 334° Northwest 353 406 34,000  Level Atlanta Center
Fri 09:31:58 AM 32.3442 -84.6633 337° Northwest 359 413 34,000  Level Atlanta Center
Fri 09:32:58 AM 32.4314 -84.7156 333° Northwest 359 413 34,000  Level Atlanta Center
Fri 09:33:58 AM 32.5333 -84.7681 337° Northwest 359 413 34,000  Level Atlanta Center
Fri 09:34:58 AM 32.6208 -84.8206 333° Northwest 359 413 34,000  Level Atlanta Center
Fri 09:35:58 AM 32.7167 -84.8608 341° North 359 413 34,000  Level Atlanta Center
Fri 09:36:58 AM 32.7956 -84.9211 327° Northwest 359 413 34,000  Level Atlanta Center
Fri 09:37:58 AM 32.8869 -84.9664 337° Northwest 370 426 34,000  Level Atlanta Center
Fri 09:38:58 AM 32.9764 -85.0169 335° Northwest 351 404 34,000  Level Atlanta Center
Fri 09:39:58 AM 33.0678 -85.0625 337° Northwest 346 398 34,000  Level Atlanta Center
Fri 09:40:58 AM 33.1592 -85.1183 333° Northwest 351 404 34,000  Level Atlanta Center
Fri 09:41:58 AM 33.2569 -85.1692 337° Northwest 351 404 34,000  Level Atlanta Center
Fri 09:42:58 AM 33.3461 -85.2200 335° Northwest 356 410 34,000  Level Atlanta Center
Fri 09:43:58 AM 33.4394 -85.2686 337° Northwest 356 410 34,000  Level Atlanta Center
Fri 09:44:58 AM 33.5289 -85.3222 333° Northwest 356 410 34,000  Level Atlanta Center
Fri 09:45:58 AM 33.6200 -85.3683 337° Northwest 351 404 34,000  Level Atlanta Center
Fri 09:46:58 AM 33.7092 -85.4197 334° Northwest 351 404 34,000  Level Atlanta Center
Fri 09:47:58 AM 33.8006 -85.4661 337° Northwest 356 410 34,000  Level Atlanta Center
Fri 09:48:58 AM 33.8836 -85.5128 335° Northwest 356 410 34,000  Level Atlanta Center
Fri 09:49:58 AM 33.9728 -85.5642 334° Northwest 351 404 34,000  Level Atlanta Center
Fri 09:50:58 AM 34.0639 -85.6111 337° Northwest 357 411 34,000  Level Atlanta Center
Fri 09:51:58 AM 34.1550 -85.6656 334° Northwest 357 411 34,000  Level Atlanta Center
Fri 09:52:58 AM 34.2461 -85.7125 337° Northwest 357 411 34,000  Level Atlanta Center
Fri 09:53:58 AM 34.3311 -85.7669 332° Northwest 351 404 34,000  Level Atlanta Center
Fri 09:54:58 AM 34.4119 -85.8089 337° Northwest 351 404 34,000  Level Atlanta Center
Fri 09:55:58 AM 34.5175 -85.8664 336° Northwest 346 398 34,000 -50 Level Atlanta Center
Fri 09:56:58 AM 34.6106 -85.9164 336° Northwest 346 398 33,900  Descending Atlanta Center
Fri 09:57:58 AM 34.6975 -85.9714 333° Northwest 351 404 34,000 50 Climbing Atlanta Center
Fri 09:58:58 AM 34.7928 -86.0192 338° Northwest 356 410 34,000  Level Atlanta Center
Fri 09:59:58 AM 34.8814 -86.0744 333° Northwest 356 410 34,000  Level Atlanta Center
Fri 10:00:58 AM 34.9703 -86.1275 334° Northwest 356 410 34,000  Level Atlanta Center
Fri 10:01:58 AM 35.0614 -86.1778 336° Northwest 356 410 34,000  Level Atlanta Center
Fri 10:04:14 AM 35.2558 -86.2906 335° Northwest 360 414 34,000  Level Memphis Center
Fri 10:05:16 AM 35.3478 -86.3428 335° Northwest 360 414 34,000  Level Memphis Center
Fri 10:06:19 AM 35.4381 -86.3958 334° Northwest 358 412 34,000  Level Memphis Center
Fri 10:07:21 AM 35.5453 -86.4575 335° Northwest 360 414 34,000  Level Memphis Center
Fri 10:08:23 AM 35.6350 -86.5108 334° Northwest 360 414 34,000  Level Memphis Center
Fri 10:09:25 AM 35.7261 -86.5658 334° Northwest 357 411 34,000  Level Memphis Center
Fri 10:10:27 AM 35.8186 -86.6183 335° Northwest 363 418 34,000  Level Memphis Center
Fri 10:11:29 AM 35.9094 -86.6722 334° Northwest 360 414 34,000  Level Memphis Center
Fri 10:12:31 AM 36.0014 -86.7247 335° Northwest 360 414 34,000  Level Memphis Center
Fri 10:13:33 AM 36.0919 -86.7794 334° Northwest 360 414 34,000  Level Memphis Center
Fri 10:14:35 AM 36.1836 -86.8328 335° Northwest 360 414 34,000  Level Memphis Center
Fri 10:15:37 AM 36.2875 -86.8986 333° Northwest 358 412 34,000  Level Memphis Center
Fri 10:16:39 AM 36.3694 -86.9475 334° Northwest 357 411 34,000  Level Memphis Center
Fri 10:17:41 AM 36.4625 -87.0322 324° Northwest 347 399 34,000  Level Memphis Center
Fri 10:18:43 AM 36.5419 -87.1081 323° Northwest 350 403 34,000  Level Memphis Center
Fri 10:19:46 AM 36.6322 -87.1653 333° Northwest 355 409 34,000  Level Memphis Center
Fri 10:20:48 AM 36.7219 -87.2236 332° Northwest 360 414 34,000  Level Memphis Center
Fri 10:21:50 AM 36.8164 -87.2736 337° Northwest 360 414 34,000  Level Memphis Center
Fri 10:22:52 AM 36.9069 -87.3328 332° Northwest 363 418 34,000  Level Memphis Center
Fri 10:23:54 AM 37.0033 -87.3839 337° Northwest 368 423 34,000  Level Memphis Center
Fri 10:24:56 AM 37.1103 -87.4519 333° Northwest 368 423 34,000  Level Memphis Center
Fri 10:25:40 AM 37.1711 -87.4872 335° Northwest 365 420 34,000  Level Indianapolis Center
Fri 10:26:42 AM 37.2664 -87.5419 335° Northwest 366 421 34,000  Level Indianapolis Center
Fri 10:27:44 AM 37.3575 -87.6014 333° Northwest 366 421 34,000  Level Indianapolis Center
Fri 10:28:46 AM 37.4536 -87.6536 337° Northwest 369 425 34,000  Level Indianapolis Center
Fri 10:29:48 AM 37.5442 -87.7131 333° Northwest 367 422 34,000  Level Indianapolis Center
Fri 10:30:50 AM 37.6544 -87.7753 336° Northwest 367 422 34,000  Level Indianapolis Center
Fri 10:31:52 AM 37.7469 -87.8333 334° Northwest 367 422 34,000  Level Indianapolis Center
Fri 10:32:55 AM 37.8319 -87.8825 335° Northwest 367 422 34,000  Level Indianapolis Center
Fri 10:33:57 AM 37.9222 -87.9408 333° Northwest 364 419 34,000  Level Indianapolis Center
Fri 10:34:59 AM 38.0342 -88.0064 335° Northwest 364 419 34,000  Level Indianapolis Center
Fri 10:36:01 AM 38.1250 -88.0661 333° Northwest 364 419 34,000  Level Indianapolis Center
Fri 10:37:03 AM 38.2192 -88.1211 335° Northwest 365 420 34,000  Level Indianapolis Center
Fri 10:38:05 AM 38.3086 -88.1808 332° Northwest 365 420 34,000  Level Indianapolis Center
Fri 10:39:07 AM 38.4033 -88.2336 336° Northwest 365 420 34,000  Level Indianapolis Center
Fri 10:40:09 AM 38.4914 -88.2942 332° Northwest 364 419 34,000  Level Indianapolis Center
Fri 10:41:11 AM 38.5856 -88.3469 336° Northwest 364 419 34,000  Level Indianapolis Center
Fri 10:42:13 AM 38.6739 -88.4083 332° Northwest 364 419 34,000  Level Indianapolis Center
Fri 10:43:15 AM 38.7856 -88.4725 336° Northwest 363 418 34,000 -435 Level Indianapolis Center
Fri 10:44:17 AM 38.8736 -88.5350 331° Northwest 363 418 33,100 -919 Descending Indianapolis Center
Fri 10:45:19 AM 38.9678 -88.5872 337° Northwest 363 418 32,100 -968 Descending Indianapolis Center
Fri 10:46:21 AM 39.0572 -88.6519 331° Northwest 364 419 31,100 -1,016 Descending Indianapolis Center
Fri 10:47:23 AM 39.1561 -88.7058 337° Northwest 375 432 30,000 -968 Descending Indianapolis Center
Fri 10:48:25 AM 39.2475 -88.7742 330° Northwest 379 436 29,100 -1,104 Descending Indianapolis Center
Fri 10:49:28 AM 39.3450 -88.8294 336° Northwest 379 436 27,700 -1,824 Descending Indianapolis Center
Fri 10:50:30 AM 39.4611 -88.9122 331° Northwest 394 453 25,300 -2,129 Descending Indianapolis Center
Fri 10:51:32 AM 39.5639 -88.9703 336° Northwest 399 459 23,300 -1,835 Descending Indianapolis Center
Fri 10:52:31 AM 39.6444 -89.0200 335° Northwest 382 440 21,600 -1,785 Descending Chicago Center
Fri 10:53:33 AM 39.7289 -89.0811 331° Northwest 353 406 19,700 -1,707 Descending Chicago Center
Fri 10:54:34 AM 39.8325 -89.1461 334° Northwest 346 398 18,100 -1,366 Descending Chicago Center
Fri 10:55:36 AM 39.9158 -89.2014 333° Northwest 339 390 16,900 -1,161 Descending Chicago Center
Fri 10:56:38 AM 39.9997 -89.2519 335° Northwest 335 386 15,700 -1,306 Descending Chicago Center
Fri 10:57:40 AM 40.0803 -89.3106 331° Northwest 333 383 14,200 -1,548 Descending Chicago Center
Fri 10:58:42 AM 40.1606 -89.3608 334° Northwest 325 374 12,500 -1,659 Descending Chicago Center
Fri 10:59:43 AM 40.2300 -89.4275 324° Northwest 315 362 10,800 -1,366 Descending Chicago Center
Fri 11:00:45 AM 40.2908 -89.4967 319° Northwest 297 342 9,700 -1,258 Descending Chicago Center
Fri 11:01:47 AM 40.3619 -89.5667 323° Northwest 274 315 8,200 -1,548 Descending Chicago Center
Fri 11:02:49 AM 40.4206 -89.6294 321° Northwest 271 312 6,500 -1,366 Descending Chicago Center
Fri 11:03:50 AM 40.4675 -89.6894 316° Northwest 252 290 5,400 -1,415 Descending Chicago Center
Fri 11:04:52 AM 40.5100 -89.7508 312° West 234 269 3,600 -1,403 Descending Chicago Center
Fri 11:05:54 AM 40.5556 -89.7944 324° Northwest 218 251 2,500 -629 Descending Chicago Center
Fri 11:06:56 AM 40.5964 -89.7542 37° Northeast 198 228 2,300 -537 Descending Chicago Center
Fri 11:07:57 AM 40.6289 -89.7203 38° Northeast 169 194 1,400 -780 Descending Chicago Center
Fri 11:08:59 AM 40.6586 -89.6878 40° Northeast 150 173 700 -677 Descending Chicago Center

Login

Don't have an account? Register now (free) for customized features, flight alerts, and more!